Current Weather Conditions from Arkansas, Oklahoma, Missouri & Kansas

As well as selected U.S. cities associated with XNA Flights


KVBT - Bentonville Arkansas, Airport
Updated: Fri, Oct-Fri-2018 4:56am
Light rain, Mostly cloudy
Light rain, Mostly cloudy
 Wind from calm
Wind: Calm
Temperature: 52°F , 11°C
Dew Point: 46°F , 8°C
Humidity: 82%
Barometer: 30.26 inHg , 1024.7 hPa
Summary: Light rain
Clouds: Mostly cloudy
Visibility: 10 miles , 16 km
Cloud details: Mostly cloudy 8000 ft
Mostly cloudy 10000 ft
2018/10/19 09:56 KVBT 190956Z AUTO 00000KT 10SM -RA BKN080 BKN100 11/08 A3026 RMK AO2 RAB43 SLP247 P0000 T01060083
KROG - Rogers Arkansas, Airport
Updated: Fri, Oct-Fri-2018 4:58am
Light rain, Overcast
Light rain, Overcast
 Wind from SSE
Wind: SSE 6 mph , 9 km/h
Temperature: 52°F , 11°C
Dew Point: 45°F , 7°C
Humidity: 77%
Barometer: 30.25 inHg , 1024.4 hPa
Summary: Light rain
Clouds: Overcast
Visibility: 10 miles , 16 km
Cloud details: Partly cloudy 3700 ft
Partly cloudy 6500 ft
Overcast 8000 ft
2018/10/19 09:58 KROG 190958Z AUTO 16005KT 10SM -RA SCT037 SCT065 OVC080 11/07 A3025 RMK AO2 RAB58 SLP240 T01060072 PNO $
KXNA - Northwest Arkansas Regional Airport
Updated: Fri, Oct-Fri-2018 5:23am
Overcast
Overcast
 Wind from calm
Wind: Calm
Temperature: 54°F , 12°C
Dew Point: 46°F , 8°C
Humidity: 77%
Barometer: 30.25 inHg , 1024.4 hPa
Clouds: Overcast
Visibility: 10 miles , 16 km
Cloud details: Few Clouds 4100 ft
Mostly cloudy 5000 ft
Overcast 6000 ft
2018/10/19 10:23 KXNA 191023Z 00000KT 10SM FEW041 BKN050 OVC060 12/08 A3025 RMK AO2 RAE00 P0000 T01170083
 
KSLG - Siloam Spring Arkansas, Airport
Updated: Fri, Oct-Fri-2018 4:56am
Overcast
Overcast
 Wind from calm
Wind: Calm
Temperature: 52°F , 11°C
Dew Point: 46°F , 8°C
Humidity: 82%
Barometer: 30.26 inHg , 1024.7 hPa
Clouds: Overcast
Visibility: 10 miles , 16 km
Cloud details: Few Clouds 4300 ft
Mostly cloudy 5500 ft
Overcast 8500 ft
2018/10/19 09:56 KSLG 190956Z AUTO 00000KT 10SM FEW043 BKN055 OVC085 11/08 A3026 RMK AO2 RAB16E43 SLP244 P0000 T01060083
KASG - Springdale, Arkansas, Airport
Updated: Thu, Oct-Thu-2018 6:48pm
NOT Current
Mostly cloudy
Mostly cloudy
 Wind from E
Wind: E 3 mph , 6 km/h
Temperature: 57°F , 14°C
Dew Point: 41°F , 5°C
Humidity: 55%
Barometer: 30.37 inHg , 1028.4 hPa
Clouds: Mostly cloudy
Visibility: 10 miles , 16 km
Cloud details: Few Clouds 12000 ft
Mostly cloudy 20000 ft
2018/10/18 23:48 KASG 182348Z 09003KT 10SM FEW120 BKN200 14/05 A3037
KFYV - Fayetteville Arkansas, Airport
Updated: Fri, Oct-Fri-2018 4:53am
Overcast
Overcast
 Wind from calm
Wind: Calm
Temperature: 50°F , 10°C
Dew Point: 46°F , 8°C
Humidity: 88%
Barometer: 30.23 inHg , 1023.7 hPa
Clouds: Overcast
Visibility: 10 miles , 16 km
Cloud details: Mostly cloudy 6000 ft
Overcast 8000 ft
2018/10/19 09:53 KFYV 190953Z AUTO 00000KT 10SM BKN060 OVC080 10/08 A3023 RMK AO2 SLP234 T01000083
 
KHRO - Harrison, Arkansas
Updated: Fri, Oct-Fri-2018 4:53am
Clear
Clear
 Wind from SE
Wind: SE 9 mph , 15 km/h
Temperature: 46°F , 8°C
Wind Chill: 41°F , 5°C
Dew Point: 45°F , 7°C
Humidity: 93%
Barometer: 30.25 inHg , 1024.4 hPa
Clouds: Clear
Visibility: 10 miles , 16 km
2018/10/19 09:53 KHRO 190953Z AUTO 14008KT 10SM CLR 08/07 A3025 RMK AO2 SLP241 T00830067
KFLP - Flippin, Arkansas
Updated: Fri, Oct-Fri-2018 4:56am
Clear
Clear
 Wind from calm
Wind: Calm
Temperature: 43°F , 6°C
Dew Point: 43°F , 6°C
Humidity: 100%
Barometer: 30.27 inHg , 1025.1 hPa
Clouds: Clear
Visibility: 10 miles , 16 km
2018/10/19 09:56 KFLP 190956Z AUTO 00000KT 10SM CLR 06/06 A3027 RMK AO2 SLP248 T00610056
KBPK - Mountain Home, Arkansas
Updated: Fri, Oct-Fri-2018 4:53am
Few Clouds
Few Clouds
 Wind from calm
Wind: Calm
Temperature: 45°F , 7°C
Dew Point: 39°F , 4°C
Humidity: 81%
Barometer: 30.25 inHg , 1024.4 hPa
Clouds: Few Clouds
Visibility: 10 miles , 16 km
Cloud details: Few Clouds 8500 ft
2018/10/19 09:53 KBPK 190953Z AUTO 00000KT 10SM FEW085 07/04 A3025 RMK AO2 SLP241 T00720044
 
KCCA - Clinton, Arkansas
Updated: Fri, Oct-Fri-2018 5:35am
Clear
Clear
 Wind from calm
Wind: Calm
Temperature: 43°F , 6°C
Dew Point: 43°F , 6°C
Humidity: 100%
Barometer: 30.28 inHg , 1025.4 hPa
Clouds: Clear
Visibility: 10 miles , 16 km
2018/10/19 10:35 KCCA 191035Z AUTO 00000KT 10SM CLR 06/06 A3028 RMK AO2
KRUE - Russellville, Arkansas
Updated: Fri, Oct-Fri-2018 4:53am
Mostly cloudy
Mostly cloudy
 Wind from calm
Wind: Calm
Temperature: 46°F , 8°C
Dew Point: 46°F , 8°C
Humidity: 100%
Barometer: 30.26 inHg , 1024.7 hPa
Clouds: Mostly cloudy
Visibility: 10 miles , 16 km
Cloud details: Mostly cloudy 9000 ft
2018/10/19 09:53 KRUE 190953Z AUTO 00000KT 10SM BKN090 08/08 A3026 RMK AO2 SLP244 T00780078
KBVX - Batesville, Arkansa
Updated: Fri, Oct-Fri-2018 4:56am
Clear
Clear
 Wind from calm
Wind: Calm
Temperature: 43°F , 6°C
Dew Point: 43°F , 6°C
Humidity: 100%
Barometer: 30.30 inHg , 1026.1 hPa
Clouds: Clear
Visibility: 10 miles , 16 km
2018/10/19 09:56 KBVX 190956Z AUTO 00000KT 10SM CLR 06/06 A3030 RMK AO2 SLP260 T00610056
 
KBYH - Blytheville, Arkansas
Updated: Thu, Oct-Thu-2018 4:59pm
NOT Current
Clear
Clear
 Wind from NE
Wind: NE 8 mph , 13 km/h
Temperature: 63°F , 17°C
Dew Point: 36°F , 2°C
Humidity: 37%
Barometer: 30.39 inHg , 1029.1 hPa
Clouds: Clear
Visibility: 10 miles , 16 km
2018/10/18 21:59 KBYH 182159Z 04007KT 10SM SKC 17/02 A3039 RMK LAST
KM19 - Newport, Arkansas
Updated: Fri, Oct-Fri-2018 4:56am

 Wind from WNW
Wind: WNW 6 mph , 9 km/h
Temperature: 45°F , 7°C
Wind Chill: 42°F , 6°C
Dew Point: 43°F , 6°C
Humidity: 93%
Barometer: 30.29 inHg , 1025.7 hPa
Visibility: 10 miles , 16 km
2018/10/19 09:56 KM19 190956Z AUTO 29005KT 10SM 07/06 A3029 RMK AO2 SLP265 T00720056 $
KSRC - Searcy, Arkansas
Updated: Fri, Oct-Fri-2018 3:56am
NOT Current
Clear
Clear
 Wind from calm
Wind: Calm
Temperature: 46°F , 8°C
Dew Point: 46°F , 8°C
Humidity: 100%
Barometer: 30.30 inHg , 1026.1 hPa
Clouds: Clear
Visibility: 10 miles , 16 km
2018/10/19 08:56 KSRC 190856Z AUTO 00000KT 10SM CLR 08/08 A3030 RMK AO2 SLP270 T00780078 58012
 
KARG - Walnut Ridge, Arkansas
Updated: Fri, Oct-Fri-2018 4:56am
Clear
Clear
 Wind from NW
Wind: NW 6 mph , 9 km/h
Temperature: 43°F , 6°C
Wind Chill: 39°F , 4°C
Dew Point: 39°F , 4°C
Humidity: 87%
Barometer: 30.30 inHg , 1026.1 hPa
Clouds: Clear
Visibility: 10 miles , 16 km
2018/10/19 09:56 KARG 190956Z AUTO 32005KT 10SM CLR 06/04 A3030 RMK AO2 SLP261 T00560044
KJBR - Jonesboro, Arkansas
Updated: Fri, Oct-Fri-2018 4:53am
Clear
Clear
 Wind from calm
Wind: Calm
Temperature: 45°F , 7°C
Dew Point: 43°F , 6°C
Humidity: 93%
Barometer: 30.28 inHg , 1025.4 hPa
Clouds: Clear
Visibility: 10 miles , 16 km
2018/10/19 09:53 KJBR 190953Z AUTO 00000KT 10SM CLR 07/06 A3028 RMK AO2 SLP251 T00670056
K4M9 - Corning, Arkansas
Updated: Fri, Oct-Fri-2018 5:35am
Clear
Clear
 Wind from calm
Wind: Calm
Temperature: 41°F , 5°C
Dew Point: 41°F , 5°C
Humidity: 100%
Barometer: 30.28 inHg , 1025.4 hPa
Clouds: Clear
Visibility: 9 miles , 14 km
2018/10/19 10:35 K4M9 191035Z AUTO 00000KT 9SM CLR 05/05 A3028 RMK AO2 PWINO
 
KLRF - Little Rock Afb, Arkansas
Updated: Fri, Oct-Fri-2018 4:56am
Clear
Clear
 Wind from calm
Wind: Calm
Temperature: 46°F , 8°C
Dew Point: 46°F , 8°C
Humidity: 100%
Barometer: 30.27 inHg , 1025.1 hPa
Clouds: Clear
Visibility: 7 miles , 11 km
2018/10/19 09:56 KLRF 190956Z 00000KT 7SM CLR 08/08 A3027 RMK AO2A SLP253 T00760075 $
KLIT - Little Rock, Arkansas
Updated: Fri, Oct-Fri-2018 4:53am
Partly cloudy
Partly cloudy
 Wind from N
Wind: N 5 mph , 7 km/h
Temperature: 48°F , 9°C
Wind Chill: 46°F , 8°C
Dew Point: 45°F , 7°C
Humidity: 87%
Barometer: 30.27 inHg , 1025.1 hPa
Clouds: Partly cloudy
Visibility: 10 miles , 16 km
Cloud details: Partly cloudy 15000 ft
2018/10/19 09:53 KLIT 190953Z 01004KT 10SM SCT150 09/07 A3027 RMK AO2 SLP253 T00890067 $
KSGT - Stuttgart, Arkansas
Updated: Fri, Oct-Fri-2018 4:56am
Clear
Clear
 Wind from NNE
Wind: NNE 5 mph , 7 km/h
Temperature: 48°F , 9°C
Wind Chill: 46°F , 8°C
Dew Point: 46°F , 8°C
Humidity: 94%
Barometer: 30.26 inHg , 1024.7 hPa
Clouds: Clear
Visibility: 10 miles , 16 km
2018/10/19 09:56 KSGT 190956Z AUTO 03004KT 10SM CLR 09/08 A3026 RMK AO2 SLP249 T00890078
 
KAWM - West Memphis, Arkansas
Updated: Thu, Oct-Thu-2018 1:53am
NOT Current
Clear
Clear
 Wind from NE
Wind: NE 7 mph , 11 km/h
Temperature: 57°F , 14°C
Dew Point: 46°F , 8°C
Humidity: 67%
Barometer: 30.40 inHg , 1029.5 hPa
Clouds: Clear
Visibility: 10 miles , 16 km
2018/10/18 06:53 KAWM 180653Z AUTO 05006KT 10SM CLR 14/08 A3040 RMK AO2 SLP292 T01390078 $
KFSM - Fort Smith, Arkansas
Updated: Fri, Oct-Fri-2018 4:53am
Overcast
Overcast
 Wind from E
Wind: E 6 mph , 9 km/h
Temperature: 54°F , 12°C
Dew Point: 48°F , 9°C
Humidity: 82%
Barometer: 30.26 inHg , 1024.7 hPa
Clouds: Overcast
Visibility: 10 miles , 16 km
Cloud details: Mostly cloudy 4600 ft
Overcast 8000 ft
2018/10/19 09:53 KFSM 190953Z AUTO 10005KT 10SM BKN046 OVC080 12/09 A3026 RMK AO2 SLP244 T01170089
KMWT - Mount Ida, Arkansas
Updated: Thu, Oct-Thu-2018 3:53pm
NOT Current
Clear
Clear
 Wind from calm
Wind: Calm
Temperature: 63°F , 17°C
Dew Point: 43°F , 6°C
Humidity: 49%
Barometer: 30.35 inHg , 1027.8 hPa
Clouds: Clear
Visibility: 10 miles , 16 km
2018/10/18 20:53 KMWT 182053Z AUTO 00000KT 10SM CLR 17/06 A3035 RMK AO2 SLP278 T01720061 56026
 
KMEZ - Mena, Arkansas
Updated: Fri, Oct-Fri-2018 5:35am
Overcast
Overcast
 Wind from calm
Wind: Calm
Temperature: 52°F , 11°C
Dew Point: 52°F , 11°C
Humidity: 100%
Barometer: 30.26 inHg , 1024.7 hPa
Clouds: Overcast
Visibility: 10 miles , 16 km
Cloud details: Overcast 3100 ft
2018/10/19 10:35 KMEZ 191035Z AUTO 00000KT 10SM OVC031 11/11 A3026 RMK AO2
KHOT - Hot Springs, Arkansas
Updated: Fri, Oct-Fri-2018 4:53am
Clear
Clear
 Wind from calm
Wind: Calm
Temperature: 48°F , 9°C
Dew Point: 48°F , 9°C
Humidity: 100%
Barometer: 30.25 inHg , 1024.4 hPa
Clouds: Clear
Visibility: 10 miles , 16 km
2018/10/19 09:53 KHOT 190953Z AUTO 00000KT 10SM CLR 09/09 A3025 RMK AO2 SLP242 T00890089
KADF - Arkadelphia, Arkansas
Updated: Fri, Oct-Fri-2018 4:56am
Clear
Clear
 Wind from calm
Wind: Calm
Temperature: 52°F , 11°C
Dew Point: 46°F , 8°C
Humidity: 82%
Barometer: 30.26 inHg , 1024.7 hPa
Clouds: Clear
Visibility: 10 miles , 16 km
2018/10/19 09:56 KADF 190956Z AUTO 00000KT 10SM CLR 11/08 A3026 RMK AO2 SLP252 T01060083 TSNO
 
KSGT - Stuttgart, Arkansas
Updated: Fri, Oct-Fri-2018 4:56am
Clear
Clear
 Wind from NNE
Wind: NNE 5 mph , 7 km/h
Temperature: 48°F , 9°C
Wind Chill: 46°F , 8°C
Dew Point: 46°F , 8°C
Humidity: 94%
Barometer: 30.26 inHg , 1024.7 hPa
Clouds: Clear
Visibility: 10 miles , 16 km
2018/10/19 09:56 KSGT 190956Z AUTO 03004KT 10SM CLR 09/08 A3026 RMK AO2 SLP249 T00890078
KPBF - Pine Bluff, Arkansas
Updated: Fri, Oct-Fri-2018 4:53am
Clear
Clear
 Wind from calm
Wind: Calm
Temperature: 50°F , 10°C
Dew Point: 46°F , 8°C
Humidity: 88%
Barometer: 30.26 inHg , 1024.7 hPa
Clouds: Clear
Visibility: 10 miles , 16 km
2018/10/19 09:53 KPBF 190953Z AUTO 00000KT 10SM CLR 10/08 A3026 RMK AO2 SLP246 T01000083
KSRC - Searcy, Arkansas
Updated: Fri, Oct-Fri-2018 3:56am
NOT Current
Clear
Clear
 Wind from calm
Wind: Calm
Temperature: 46°F , 8°C
Dew Point: 46°F , 8°C
Humidity: 100%
Barometer: 30.30 inHg , 1026.1 hPa
Clouds: Clear
Visibility: 10 miles , 16 km
2018/10/19 08:56 KSRC 190856Z AUTO 00000KT 10SM CLR 08/08 A3030 RMK AO2 SLP270 T00780078 58012
 
KRUE - Russellville, Arkansas
Updated: Fri, Oct-Fri-2018 4:53am
Mostly cloudy
Mostly cloudy
 Wind from calm
Wind: Calm
Temperature: 46°F , 8°C
Dew Point: 46°F , 8°C
Humidity: 100%
Barometer: 30.26 inHg , 1024.7 hPa
Clouds: Mostly cloudy
Visibility: 10 miles , 16 km
Cloud details: Mostly cloudy 9000 ft
2018/10/19 09:53 KRUE 190953Z AUTO 00000KT 10SM BKN090 08/08 A3026 RMK AO2 SLP244 T00780078
KCCA - Clinton, Arkansas
Updated: Fri, Oct-Fri-2018 5:35am
Clear
Clear
 Wind from calm
Wind: Calm
Temperature: 43°F , 6°C
Dew Point: 43°F , 6°C
Humidity: 100%
Barometer: 30.28 inHg , 1025.4 hPa
Clouds: Clear
Visibility: 10 miles , 16 km
2018/10/19 10:35 KCCA 191035Z AUTO 00000KT 10SM CLR 06/06 A3028 RMK AO2
KLLQ - Monticello, Arkansas
Updated: Fri, Oct-Fri-2018 4:53am
Clear
Clear
 Wind from calm
Wind: Calm
Temperature: 54°F , 12°C
Dew Point: 48°F , 9°C
Humidity: 82%
Barometer: 30.25 inHg , 1024.4 hPa
Clouds: Clear
Visibility: 10 miles , 16 km
2018/10/19 09:53 KLLQ 190953Z AUTO 00000KT 10SM CLR 12/09 A3025 RMK AO2 SLP243 T01170089
 
KCDH - Camden, Arkansas
Updated: Fri, Oct-Fri-2018 5:35am

 Wind from calm
Wind: Calm
Temperature: 52°F , 11°C
Dew Point: 46°F , 8°C
Humidity: 82%
Barometer: 30.24 inHg , 1024 hPa
Visibility: 10 miles , 16 km
2018/10/19 10:35 KCDH 191035Z AUTO 00000KT 10SM 11/08 A3024 RMK AO2
KM19 - Newport, Arkansas
Updated: Fri, Oct-Fri-2018 4:56am

 Wind from WNW
Wind: WNW 6 mph , 9 km/h
Temperature: 45°F , 7°C
Wind Chill: 42°F , 6°C
Dew Point: 43°F , 6°C
Humidity: 93%
Barometer: 30.29 inHg , 1025.7 hPa
Visibility: 10 miles , 16 km
2018/10/19 09:56 KM19 190956Z AUTO 29005KT 10SM 07/06 A3029 RMK AO2 SLP265 T00720056 $
KDEQ - De Queen, Arkansas
Updated: Fri, Oct-Fri-2018 4:53am
Overcast
Overcast
 Wind from ENE
Wind: ENE 3 mph , 6 km/h
Temperature: 55°F , 13°C
Dew Point: 46°F , 8°C
Humidity: 72%
Barometer: 30.23 inHg , 1023.7 hPa
Clouds: Overcast
Visibility: 10 miles , 16 km
Cloud details: Mostly cloudy 4000 ft
Mostly cloudy 4700 ft
Overcast 8500 ft
2018/10/19 09:53 KDEQ 190953Z AUTO 07003KT 10SM BKN040 BKN047 OVC085 13/08 A3023 RMK AO2 SLP236 T01280083
 
KTXK - Texarkana, Arkansas
Updated: Fri, Oct-Fri-2018 4:53am
Mostly cloudy
Mostly cloudy
 Wind from ENE
Wind: ENE 5 mph , 7 km/h
Temperature: 54°F , 12°C
Dew Point: 46°F , 8°C
Humidity: 77%
Barometer: 30.23 inHg , 1023.7 hPa
Clouds: Mostly cloudy
Visibility: 10 miles , 16 km
Cloud details: Mostly cloudy 8500 ft
2018/10/19 09:53 KTXK 190953Z AUTO 06004KT 10SM BKN085 12/08 A3023 RMK AO2 SLP235 T01170083
KELD - El Dorado, Arkansas
Updated: Fri, Oct-Fri-2018 4:53am
Clear
Clear
 Wind from ENE
Wind: ENE 5 mph , 7 km/h
Temperature: 52°F , 11°C
Dew Point: 48°F , 9°C
Humidity: 88%
Barometer: 30.24 inHg , 1024 hPa
Clouds: Clear
Visibility: 10 miles , 16 km
2018/10/19 09:53 KELD 190953Z AUTO 06004KT 10SM CLR 11/09 A3024 RMK AO2 SLP237 T01110094
KCSM - Clinton, Oklahoma
Updated: Fri, Oct-Fri-2018 4:53am
Light rain, Overcast
Light rain, Overcast
 Wind from S
Wind: S 15 mph , 24 km/h
Temperature: 52°F , 11°C
Dew Point: 52°F , 11°C
Humidity: 100%
Barometer: 30.22 inHg , 1023.4 hPa
Summary: Light rain
Clouds: Overcast
Visibility: 9 miles , 14 km
Cloud details: Overcast 300 ft
2018/10/19 09:53 KCSM 190953Z AUTO 19013KT 9SM -RA OVC003 11/11 A3022 RMK AO2 SLP230 P0004 T01060106
 
KHBR - Hobart, Oklahoma
Updated: Fri, Oct-Fri-2018 4:53am
Light rain, Overcast
Light rain, Overcast
 Wind from S
Wind: S 8 mph , 13 km/h
Temperature: 54°F , 12°C
Dew Point: 52°F , 11°C
Humidity: 94%
Barometer: 30.24 inHg , 1024 hPa
Summary: Light rain
Clouds: Overcast
Visibility: 8 miles , 13 km
Cloud details: Overcast 500 ft
2018/10/19 09:53 KHBR 190953Z AUTO 19007KT 8SM -RA OVC005 12/11 A3024 RMK AO2 SLP236 P0003 T01170111
KLTS - Altus Afb, Oklahoma
Updated: Fri, Oct-Fri-2018 5:22am
Light drizzle, Overcast
Light drizzle, Overcast
 Wind from S
Wind: S 5 mph , 7 km/h
Temperature: 54°F , 12°C
Dew Point: 54°F , 12°C
Humidity: 100%
Barometer: 30.22 inHg , 1023.4 hPa
Summary: Light Drizzle
Clouds: Overcast
Visibility: 10 miles , 16 km
Cloud details: Overcast 400 ft
2018/10/19 10:22 KLTS 191022Z AUTO 17004KT 10SM -DZ OVC004 12/12 A3022 RMK AO2 DZB17 CIG 003 RWY17L SLP231 $
KFSI - Fort Sill, Oklahoma
Updated: Fri, Oct-Fri-2018 5:35am
Light drizzle, Overcast
Light drizzle, Overcast
 Wind from SSE
Wind: SSE 3 mph , 6 km/h
Temperature: 54°F , 12°C
Dew Point: 54°F , 12°C
Humidity: 100%
Barometer: 30.21 inHg , 1023 hPa
Summary: Light Drizzle
Clouds: Overcast
Visibility: 10 miles , 16 km
Cloud details: Mostly cloudy 400 ft
Overcast 2500 ft
2018/10/19 10:35 KFSI 191035Z AUTO 15003KT 10SM -DZ BKN004 OVC025 12/12 A3021 RMK AO2 RAE0959DZB0959E01DZB35 SLP229
 
KGAG - Gage, Oklahoma
Updated: Fri, Oct-Fri-2018 5:09am
Overcast
Overcast
 Wind from S
Wind: S 12 mph , 19 km/h
Temperature: 52°F , 11°C
Dew Point: 48°F , 9°C
Humidity: 88%
Barometer: 30.18 inHg , 1022 hPa
Clouds: Overcast
Visibility: 10 miles , 16 km
Cloud details: Few Clouds 700 ft
Partly cloudy 1200 ft
Overcast 4000 ft
2018/10/19 10:09 KGAG 191009Z AUTO 19010KT 10SM FEW007 SCT012 OVC040 11/09 A3018 RMK AO2 T01060094
KWWR - Woodward, Oklahoma
Updated: Fri, Oct-Fri-2018 5:35am
Overcast
Overcast
 Wind from SSW
Wind: SSW 12 mph , 19 km/h
Temperature: 50°F , 10°C
Wind Chill: 45°F , 7°C
Dew Point: 46°F , 8°C
Humidity: 88%
Barometer: 30.21 inHg , 1023 hPa
Clouds: Overcast
Visibility: 10 miles , 16 km
Cloud details: Mostly cloudy 600 ft
Mostly cloudy 1300 ft
Overcast 4200 ft
2018/10/19 10:35 KWWR 191035Z AUTO 20010KT 10SM BKN006 BKN013 OVC042 10/08 A3021 RMK AO2
KLAW - Lawton, Oklahoma
Updated: Fri, Oct-Fri-2018 5:06am
Overcast
Overcast
 Wind from SE
Wind: SE 5 mph , 7 km/h
Temperature: 54°F , 12°C
Dew Point: 54°F , 12°C
Humidity: 100%
Barometer: 30.23 inHg , 1023.7 hPa
Clouds: Overcast
Visibility: 10 miles , 16 km
Cloud details: Partly cloudy 400 ft
Overcast 2700 ft
2018/10/19 10:06 KLAW 191006Z AUTO 13004KT 10SM SCT004 OVC027 12/12 A3023 RMK AO2 T01220122
 
KOKC - Oklahoma City, Oklahoma
Updated: Fri, Oct-Fri-2018 5:32am
Overcast
Overcast
 Wind from S
Wind: S 7 mph , 11 km/h
Temperature: 52°F , 11°C
Dew Point: 52°F , 11°C
Humidity: 100%
Barometer: 30.22 inHg , 1023.4 hPa
Clouds: Overcast
Visibility: 10 miles , 16 km
Cloud details: Few Clouds 300 ft
Mostly cloudy 2900 ft
Overcast 9000 ft
2018/10/19 10:32 KOKC 191032Z 18006KT 10SM FEW003 BKN029 OVC090 11/11 A3022 RMK AO2 RAE30 P0003 T01110111
KEND - Enid/Vance Afb, Oklahoma
Updated: Fri, Oct-Fri-2018 5:21am
Rain, Overcast
Rain, Overcast
 Wind from S
Wind: S 8 mph , 13 km/h
Temperature: 52°F , 11°C
Dew Point: 52°F , 11°C
Humidity: 100%
Barometer: 30.22 inHg , 1023.4 hPa
Summary: Rain
Clouds: Overcast
Visibility: 9 miles , 14 km
Cloud details: Overcast 700 ft
2018/10/19 10:21 KEND 191021Z AUTO 19007KT 9SM RA OVC007 11/11 A3022 RMK AO2 RAB13 SLP235 VISNO RWY35C $
KFDR - Frederick/Altus, Oklahoma
Updated: Fri, Oct-Fri-2018 4:53am
Light rain, Mist, Overcast
Light rain, Mist, Overcast
 Wind from SE
Wind: SE 3 mph , 6 km/h
Temperature: 54°F , 12°C
Dew Point: 54°F , 12°C
Humidity: 100%
Barometer: 30.20 inHg , 1022.7 hPa
Summary: Light rain, Mist
Clouds: Overcast
Visibility: 4 miles , 6 km
Cloud details: Overcast 300 ft
2018/10/19 09:53 KFDR 190953Z AUTO 14003KT 4SM -RA BR OVC003 12/12 A3020 RMK AO2 RAE04B30 SLP222 T01220122 PNO $
 
KOUN - Norman, Oklahoma
Updated: Fri, Oct-Fri-2018 5:35am
Light rain, Overcast
Light rain, Overcast
 Wind from S
Wind: S 5 mph , 7 km/h
Temperature: 54°F , 12°C
Dew Point: 52°F , 11°C
Humidity: 94%
Barometer: 30.21 inHg , 1023 hPa
Summary: Light rain
Clouds: Overcast
Visibility: 10 miles , 16 km
Cloud details: Mostly cloudy 500 ft
Mostly cloudy 1500 ft
Overcast 3200 ft
2018/10/19 10:35 KOUN 191035Z AUTO 17004KT 10SM -RA BKN005 BKN015 OVC032 12/11 A3021 RMK AO2 P0008 T01160111
KTIK - Tinker Afb, Oklahoma
Updated: Fri, Oct-Fri-2018 5:42am
Overcast
Overcast
 Wind from S
Wind: S 7 mph , 11 km/h
Temperature: 52°F , 11°C
Dew Point: 52°F , 11°C
Humidity: 100%
Barometer: 30.22 inHg , 1023.4 hPa
Clouds: Overcast
Visibility: 10 miles , 16 km
Cloud details: Few Clouds 800 ft
Mostly cloudy 1500 ft
Overcast 2900 ft
2018/10/19 10:42 KTIK 191042Z AUTO 18006KT 10SM FEW008 BKN015 OVC029 11/11 A3022 RMK AO2 RAE36DZB36E42 CIG 009V028 CIG 004 RWY13 CIG 006 RWY31 CIG 006 RWY36 SLP240 $
KGOK - Guthrie, Oklahoma
Updated: Fri, Oct-Fri-2018 4:53am
Light rain, Mostly cloudy
Light rain, Mostly cloudy
 Wind from SSE
Wind: SSE 7 mph , 11 km/h
Temperature: 52°F , 11°C
Dew Point: 52°F , 11°C
Humidity: 100%
Barometer: 30.22 inHg , 1023.4 hPa
Summary: Light rain
Clouds: Mostly cloudy
Visibility: 8 miles , 13 km
Cloud details: Few Clouds 1300 ft
Mostly cloudy 4700 ft
Mostly cloudy 10000 ft
2018/10/19 09:53 KGOK 190953Z AUTO 16006KT 8SM -RA FEW013 BKN047 BKN100 11/11 A3022 RMK AO2 SLP233 P0021 T01110106
 
KSNL - Shawnee, Oklahoma
Updated: Fri, Oct-Fri-2018 5:35am
Light rain, Overcast
Light rain, Overcast
 Wind from S
Wind: S 6 mph , 9 km/h
Temperature: 52°F , 11°C
Dew Point: 52°F , 11°C
Humidity: 100%
Barometer: 30.24 inHg , 1024 hPa
Summary: Light rain
Clouds: Overcast
Visibility: 10 miles , 16 km
Cloud details: Partly cloudy 3800 ft
Mostly cloudy 4600 ft
Overcast 11000 ft
2018/10/19 10:35 KSNL 191035Z AUTO 19005KT 10SM -RA SCT038 BKN046 OVC110 11/11 A3024 RMK AO2 P0006 T01110105
KCQB - Chandler, Oklahoma
Updated: Fri, Oct-Fri-2018 5:35am
Light rain, Mist, Overcast
Light rain, Mist, Overcast
 Wind from calm
Wind: Calm
Temperature: 52°F , 11°C
Dew Point: 52°F , 11°C
Humidity: 100%
Barometer: 30.24 inHg , 1024 hPa
Summary: Light rain, Mist
Clouds: Overcast
Visibility: 5 miles , 8 km
Cloud details: Mostly cloudy 3200 ft
Mostly cloudy 3700 ft
Overcast 4500 ft
2018/10/19 10:35 KCQB 191035Z AUTO 00000KT 5SM -RA BR BKN032 BKN037 OVC045 11/11 A3024 RMK AO2 T01100107
KPVJ - Pauls Valley, Oklahoma
Updated: Fri, Oct-Fri-2018 5:35am
Light rain, Overcast
Light rain, Overcast
 Wind from calm
Wind: Calm
Temperature: 54°F , 12°C
Dew Point: 54°F , 12°C
Humidity: 100%
Barometer: 30.23 inHg , 1023.7 hPa
Summary: Light rain
Clouds: Overcast
Visibility: 10 miles , 16 km
Cloud details: Partly cloudy 3000 ft
Partly cloudy 3900 ft
Overcast 4900 ft
2018/10/19 10:35 KPVJ 191035Z AUTO 00000KT 10SM -RA SCT030 SCT039 OVC049 12/12 A3023 RMK AO2 P0009 T01180118
 
KEND - Enid/Vance Afb, Oklahoma
Updated: Fri, Oct-Fri-2018 5:21am
Rain, Overcast
Rain, Overcast
 Wind from S
Wind: S 8 mph , 13 km/h
Temperature: 52°F , 11°C
Dew Point: 52°F , 11°C
Humidity: 100%
Barometer: 30.22 inHg , 1023.4 hPa
Summary: Rain
Clouds: Overcast
Visibility: 9 miles , 14 km
Cloud details: Overcast 700 ft
2018/10/19 10:21 KEND 191021Z AUTO 19007KT 9SM RA OVC007 11/11 A3022 RMK AO2 RAB13 SLP235 VISNO RWY35C $
KSWO - Stillwater, Oklahoma
Updated: Fri, Oct-Fri-2018 5:26am
Overcast
Overcast
 Wind from S
Wind: S 7 mph , 11 km/h
Temperature: 54°F , 12°C
Dew Point: 50°F , 10°C
Humidity: 88%
Barometer: 30.23 inHg , 1023.7 hPa
Clouds: Overcast
Visibility: 10 miles , 16 km
Cloud details: Few Clouds 600 ft
Partly cloudy 3400 ft
Overcast 4100 ft
2018/10/19 10:26 KSWO 191026Z AUTO 18006KT 10SM FEW006 SCT034 OVC041 12/10 A3023 RMK AO2 RAE19 P0004 T01170100 $
KFSI - Fort Sill, Oklahoma
Updated: Fri, Oct-Fri-2018 5:35am
Light drizzle, Overcast
Light drizzle, Overcast
 Wind from SSE
Wind: SSE 3 mph , 6 km/h
Temperature: 54°F , 12°C
Dew Point: 54°F , 12°C
Humidity: 100%
Barometer: 30.21 inHg , 1023 hPa
Summary: Light Drizzle
Clouds: Overcast
Visibility: 10 miles , 16 km
Cloud details: Mostly cloudy 400 ft
Overcast 2500 ft
2018/10/19 10:35 KFSI 191035Z AUTO 15003KT 10SM -DZ BKN004 OVC025 12/12 A3021 RMK AO2 RAE0959DZB0959E01DZB35 SLP229
 
KDUC - Duncan, Oklahoma
Updated: Fri, Oct-Fri-2018 5:35am
Overcast
Overcast
 Wind from SE
Wind: SE 3 mph , 6 km/h
Temperature: 54°F , 12°C
Dew Point: 54°F , 12°C
Humidity: 100%
Barometer: 30.24 inHg , 1024 hPa
Clouds: Overcast
Visibility: 10 miles , 16 km
Cloud details: Overcast 2800 ft
2018/10/19 10:35 KDUC 191035Z AUTO 14003KT 10SM OVC028 12/12 A3024 RMK AO2 T01210116
KOKM - Okmulgee, Oklahoma
Updated: Fri, Oct-Fri-2018 5:35am
Overcast
Overcast
 Wind from NW
Wind: NW 3 mph , 6 km/h
Temperature: 54°F , 12°C
Dew Point: 54°F , 12°C
Humidity: 100%
Barometer: 30.26 inHg , 1024.7 hPa
Clouds: Overcast
Visibility: 10 miles , 16 km
Cloud details: Overcast 3600 ft
2018/10/19 10:35 KOKM 191035Z AUTO 31003KT 10SM OVC036 12/12 A3026 RMK AO2 P0007 T01160116
KMLC - Mcalester, Oklahoma
Updated: Fri, Oct-Fri-2018 4:53am
Light rain, Overcast
Light rain, Overcast
 Wind from calm
Wind: Calm
Temperature: 55°F , 13°C
Dew Point: 48°F , 9°C
Humidity: 77%
Barometer: 30.25 inHg , 1024.4 hPa
Summary: Light rain
Clouds: Overcast
Visibility: 10 miles , 16 km
Cloud details: Partly cloudy 3500 ft
Mostly cloudy 7000 ft
Overcast 11000 ft
2018/10/19 09:53 KMLC 190953Z AUTO 00000KT 10SM -RA SCT035 BKN070 OVC110 13/09 A3025 RMK AO2 RAE0858B23 SLP238 P0001 T01280094 $
 
KMKO - Muskogee, Oklahoma
Updated: Fri, Oct-Fri-2018 4:53am
Light rain, Overcast
Light rain, Overcast
 Wind from SSE
Wind: SSE 5 mph , 7 km/h
Temperature: 54°F , 12°C
Dew Point: 52°F , 11°C
Humidity: 94%
Barometer: 30.26 inHg , 1024.7 hPa
Summary: Light rain
Clouds: Overcast
Visibility: 10 miles , 16 km
Cloud details: Mostly cloudy 4300 ft
Overcast 6000 ft
2018/10/19 09:53 KMKO 190953Z AUTO 16004KT 10SM -RA BKN043 OVC060 12/11 A3026 RMK AO2 RAB32 SLP245 P0000 T01220106
KRVS - Tulsa, Oklahoma
Updated: Fri, Oct-Fri-2018 5:31am
Rain, Mist, Overcast
Rain, Mist, Overcast
 Wind from calm
Wind: Calm
Temperature: 54°F , 12°C
Dew Point: 52°F , 11°C
Humidity: 94%
Barometer: 30.25 inHg , 1024.4 hPa
Summary: Rain, Mist
Clouds: Overcast
Visibility: 4 miles , 6 km
Cloud details: Few Clouds 1100 ft
Mostly cloudy 5500 ft
Overcast 9000 ft
2018/10/19 10:31 KRVS 191031Z AUTO 00000KT 4SM RA BR FEW011 BKN055 OVC090 12/11 A3025 RMK AO2 P0016 T01170106
KGZL - Stigler, Oklahoma
Updated: Fri, Oct-Fri-2018 5:35am
Overcast
Overcast
 Wind from calm
Wind: Calm
Temperature: 55°F , 13°C
Dew Point: 45°F , 7°C
Humidity: 67%
Barometer: 30.26 inHg , 1024.7 hPa
Clouds: Overcast
Visibility: 10 miles , 16 km
Cloud details: Few Clouds 3200 ft
Overcast 3800 ft
2018/10/19 10:35 KGZL 191035Z AUTO 00000KT 10SM FEW032 OVC038 13/07 A3026 RMK AO2
 
KADH - Ada, Oklahoma
Updated: Fri, Oct-Fri-2018 5:35am
Light rain, Overcast
Light rain, Overcast
 Wind from calm
Wind: Calm
Temperature: 52°F , 11°C
Dew Point: 52°F , 11°C
Humidity: 100%
Barometer: 30.24 inHg , 1024 hPa
Summary: Light rain
Clouds: Overcast
Visibility: 5 miles , 8 km
Cloud details: Partly cloudy 1400 ft
Mostly cloudy 4000 ft
Overcast 5000 ft
2018/10/19 10:35 KADH 191035Z AUTO 00000KT 5SM -RA SCT014 BKN040 OVC050 11/11 A3024 RMK AO2 P0004
KAQR - Atoka, Oklahoma
Updated: Fri, Oct-Fri-2018 5:35am
Light rain, Overcast
Light rain, Overcast
 Wind from calm
Wind: Calm
Temperature: 52°F , 11°C
Dew Point: 50°F , 10°C
Humidity: 94%
Barometer: 30.27 inHg , 1025.1 hPa
Summary: Light rain
Clouds: Overcast
Visibility: 7 miles , 11 km
Cloud details: Overcast 2900 ft
2018/10/19 10:35 KAQR 191035Z AUTO 00000KT 7SM -RA OVC029 11/10 A3027 RMK AO2 P0002
KJSV - Sallisaw, Oklahoma
Updated: Fri, Oct-Fri-2018 5:35am
Overcast
Overcast
 Wind from E
Wind: E 5 mph , 7 km/h
Temperature: 54°F , 12°C
Dew Point: 45°F , 7°C
Humidity: 72%
Barometer: 30.26 inHg , 1024.7 hPa
Clouds: Overcast
Visibility: 10 miles , 16 km
Cloud details: Overcast 4400 ft
2018/10/19 10:35 KJSV 191035Z AUTO 09004KT 10SM OVC044 12/07 A3026 RMK AO2
 
KTQH - Tahlequah, Oklahoma
Updated: Fri, Oct-Fri-2018 5:35am
Rain, Mostly cloudy
Rain, Mostly cloudy
 Wind from calm
Wind: Calm
Temperature: 50°F , 10°C
Dew Point: 48°F , 9°C
Humidity: 94%
Barometer: 30.27 inHg , 1025.1 hPa
Summary: Rain
Clouds: Mostly cloudy
Visibility: 7 miles , 11 km
Cloud details: Partly cloudy 500 ft
Partly cloudy 1000 ft
Mostly cloudy 3800 ft
2018/10/19 10:35 KTQH 191035Z AUTO 00000KT 7SM RA SCT005 SCT010 BKN038 10/09 A3027 RMK AO2 P0003
KGCM - Claremore, Oklahoma
Updated: Fri, Oct-Fri-2018 5:35am
Heavy rain, Overcast
Heavy rain, Overcast
 Wind from calm
Wind: Calm
Temperature: 50°F , 10°C
Dew Point: 48°F , 9°C
Humidity: 94%
Barometer: 30.29 inHg , 1025.7 hPa
Summary: Heavy rain
Clouds: Overcast
Visibility: 1 3/4 miles , 5 km
Cloud details: Mostly cloudy 2600 ft
Overcast 3800 ft
2018/10/19 10:35 KGCM 191035Z AUTO 00000KT 1 3/4SM +RA BKN026 OVC038 10/09 A3029 RMK AO2 P0021 TSNO
KRKR - Poteau, Oklahoma
Updated: Fri, Oct-Fri-2018 5:35am
Overcast
Overcast
 Wind from calm
Wind: Calm
Temperature: 52°F , 11°C
Dew Point: 50°F , 10°C
Humidity: 94%
Barometer: 30.24 inHg , 1024 hPa
Clouds: Overcast
Visibility: 10 miles , 16 km
Cloud details: Partly cloudy 3600 ft
Overcast 4400 ft
2018/10/19 10:35 KRKR 191035Z AUTO 00000KT 10SM SCT036 OVC044 11/10 A3024 RMK AO2
 
KGMJ - Grove, Oklahoma
Updated: Fri, Oct-Fri-2018 5:35am
Rain, Overcast
Rain, Overcast
 Wind from calm
Wind: Calm
Temperature: 52°F , 11°C
Dew Point: 50°F , 10°C
Humidity: 94%
Barometer: 30.27 inHg , 1025.1 hPa
Summary: Rain
Clouds: Overcast
Visibility: 10 miles , 16 km
Cloud details: Overcast 3800 ft
2018/10/19 10:35 KGMJ 191035Z AUTO 00000KT 10SM RA OVC038 11/10 A3027 RMK AO2
K4O4 - Idabel, Oklahoma
Updated: Fri, Oct-Fri-2018 5:35am
Overcast
Overcast
 Wind from calm
Wind: Calm
Temperature: 52°F , 11°C
Dew Point: 45°F , 7°C
Humidity: 77%
Barometer: 30.24 inHg , 1024 hPa
Clouds: Overcast
Visibility: 2 miles , 3 km
Cloud details: Overcast 6000 ft
2018/10/19 10:35 K4O4 191035Z AUTO 00000KT 2SM OVC060 11/07 A3024 RMK AO2
KHHW - Hugo, Oklahoma
Updated: Fri, Oct-Fri-2018 5:35am
Overcast
Overcast
 Wind from calm
Wind: Calm
Temperature: 57°F , 14°C
Dew Point: 46°F , 8°C
Humidity: 67%
Barometer: 30.24 inHg , 1024 hPa
Clouds: Overcast
Visibility: 10 miles , 16 km
Cloud details: Overcast 2900 ft
2018/10/19 10:35 KHHW 191035Z AUTO 00000KT 10SM OVC029 14/08 A3024 RMK AO2 T01370075
 
KDUA - Durant, Oklahoma
Updated: Tue, Oct-Tue-2018 4:20pm
NOT Current

 
2018/10/16 21:20 KDUA 162120Z AUTO RMK AO2 PWINO PNO
KSTJ - St. Joseph, Missouri
Updated: Fri, Oct-Fri-2018 4:53am
Overcast
Overcast
 Wind from SSW
Wind: SSW 6 mph , 9 km/h
Temperature: 54°F , 12°C
Dew Point: 46°F , 8°C
Humidity: 77%
Barometer: 30.16 inHg , 1021.3 hPa
Clouds: Overcast
Visibility: 10 miles , 16 km
Cloud details: Overcast 4900 ft
2018/10/19 09:53 KSTJ 190953Z AUTO 20005KT 10SM OVC049 12/08 A3016 RMK AO2 SLP210 T01220078
KMCI - Kansas City/Intl, Missouri
Updated: Fri, Oct-Fri-2018 4:53am
Overcast
Overcast
 Wind from SSW
Wind: SSW 7 mph , 11 km/h
Temperature: 54°F , 12°C
Dew Point: 43°F , 6°C
Humidity: 67%
Barometer: 30.18 inHg , 1022 hPa
Clouds: Overcast
Visibility: 10 miles , 16 km
Cloud details: Overcast 4500 ft
2018/10/19 09:53 KMCI 190953Z 20006KT 10SM OVC045 12/06 A3018 RMK AO2 SLP216 T01170061
 
KMKC - Kansas City/Dntn, Missouri
Updated: Fri, Oct-Fri-2018 4:54am
Overcast
Overcast
 Wind from SSW
Wind: SSW 9 mph , 15 km/h
Temperature: 55°F , 13°C
Dew Point: 43°F , 6°C
Humidity: 63%
Barometer: 30.19 inHg , 1022.4 hPa
Clouds: Overcast
Visibility: 10 miles , 16 km
Cloud details: Overcast 4800 ft
2018/10/19 09:54 KMKC 190954Z 21008KT 10SM OVC048 13/06 A3019 RMK AO2 SLP220 T01280061
KCDJ - Chillicothe, Missouri
Updated: Fri, Oct-Fri-2018 4:52am

 Wind from S
Wind: S 6 mph , 9 km/h
Temperature: 54°F , 12°C
Dew Point: 43°F , 6°C
Humidity: 67%
Barometer: 30.20 inHg , 1022.7 hPa
2018/10/19 09:52 KCDJ 190952Z AUTO 18005KT 12/06 A3020 RMK AO1 SLP224 T01170061
KIRK - Kirksville, Missouri
Updated: Fri, Oct-Fri-2018 4:55am
Overcast
Overcast
 Wind from SSW
Wind: SSW 7 mph , 11 km/h
Temperature: 50°F , 10°C
Wind Chill: 47°F , 8°C
Dew Point: 39°F , 4°C
Humidity: 67%
Barometer: 30.19 inHg , 1022.4 hPa
Clouds: Overcast
Visibility: 10 miles , 16 km
Cloud details: Mostly cloudy 6500 ft
Overcast 11000 ft
2018/10/19 09:55 KIRK 190955Z AUTO 20006KT 10SM BKN065 OVC110 10/04 A3019 RMK AO2 SLP226 T01000039
 
KSZL - Whiteman Afb, Missouri
Updated: Fri, Oct-Fri-2018 4:56am
Overcast
Overcast
 Wind from SW
Wind: SW 10 mph , 17 km/h
Temperature: 54°F , 12°C
Dew Point: 41°F , 5°C
Humidity: 63%
Barometer: 30.17 inHg , 1021.7 hPa
Clouds: Overcast
Visibility: 10 miles , 16 km
Cloud details: Overcast 6000 ft
2018/10/19 09:56 KSZL 190956Z 22009KT 10SM OVC060 12/05 A3017 RMK AO2A SLP218 T01220051 $
KDMO - Sedalia, Missouri
Updated: Fri, Oct-Fri-2018 4:53am
Overcast
Overcast
 Wind from SSW
Wind: SSW 12 mph , 19 km/h
Temperature: 52°F , 11°C
Dew Point: 39°F , 4°C
Humidity: 62%
Barometer: 30.22 inHg , 1023.4 hPa
Clouds: Overcast
Visibility: 10 miles , 16 km
Cloud details: Overcast 5500 ft
2018/10/19 09:53 KDMO 190953Z AUTO 20010KT 10SM OVC055 11/04 A3022 RMK AO2 SLP234 T01110044
KGLY - Clinton, Missouri
Updated: Fri, Oct-Fri-2018 5:35am
Haze, Overcast
Haze, Overcast
 Wind from calm
Wind: Calm
Temperature: 52°F , 11°C
Dew Point: 45°F , 7°C
Humidity: 77%
Barometer: 30.23 inHg , 1023.7 hPa
Summary: Haze
Clouds: Overcast
Visibility: 2 1/2 miles , 2 km
Cloud details: Overcast 6000 ft
2018/10/19 10:35 KGLY 191035Z AUTO 00000KT 2 1/2SM HZ OVC060 11/07 A3023 RMK AO2
 
KCOU - Columbia, Missouri
Updated: Fri, Oct-Fri-2018 4:54am
Overcast
Overcast
 Wind from SSW
Wind: SSW 8 mph , 13 km/h
Temperature: 50°F , 10°C
Wind Chill: 47°F , 8°C
Dew Point: 39°F , 4°C
Humidity: 67%
Barometer: 30.23 inHg , 1023.7 hPa
Clouds: Overcast
Visibility: 10 miles , 16 km
Cloud details: Mostly cloudy 6000 ft
Overcast 8000 ft
2018/10/19 09:54 KCOU 190954Z AUTO 20007KT 10SM BKN060 OVC080 10/04 A3023 RMK AO2 SLP236 T01000044
KJEF - Jefferson City, Missouri
Updated: Fri, Oct-Fri-2018 4:53am
Overcast
Overcast
 Wind from calm
Wind: Calm
Temperature: 48°F , 9°C
Dew Point: 43°F , 6°C
Humidity: 82%
Barometer: 30.24 inHg , 1024 hPa
Clouds: Overcast
Visibility: 10 miles , 16 km
Cloud details: Mostly cloudy 6500 ft
Overcast 8000 ft
2018/10/19 09:53 KJEF 190953Z AUTO 00000KT 10SM BKN065 OVC080 09/06 A3024 RMK AO2 SLP230 T00940056
KVIH - Vichy/Rolla, Missouri
Updated: Fri, Oct-Fri-2018 4:53am
Partly cloudy
Partly cloudy
 Wind from SSW
Wind: SSW 10 mph , 17 km/h
Temperature: 48°F , 9°C
Wind Chill: 44°F , 7°C
Dew Point: 36°F , 2°C
Humidity: 62%
Barometer: 30.25 inHg , 1024.4 hPa
Clouds: Partly cloudy
Visibility: 10 miles , 16 km
Cloud details: Few Clouds 9000 ft
Partly cloudy 11000 ft
2018/10/19 09:53 KVIH 190953Z AUTO 20009KT 10SM FEW090 SCT110 09/02 A3025 RMK AO2 SLP243 T00940017
 
KTBN - Fort Leonard Wood, Missouri
Updated: Fri, Oct-Fri-2018 4:56am
Overcast
Overcast
 Wind from SSE
Wind: SSE 5 mph , 7 km/h
Temperature: 48°F , 9°C
Wind Chill: 46°F , 8°C
Dew Point: 39°F , 4°C
Humidity: 71%
Barometer: 30.25 inHg , 1024.4 hPa
Clouds: Overcast
Visibility: 10 miles , 16 km
Cloud details: Overcast 6000 ft
2018/10/19 09:56 KTBN 190956Z AUTO 16004KT 10SM OVC060 09/04 A3025 RMK AO2 SLP246 T00880042 $
KJLN - Joplin, Missouri
Updated: Fri, Oct-Fri-2018 4:53am
Mostly cloudy
Mostly cloudy
 Wind from S
Wind: S 5 mph , 7 km/h
Temperature: 52°F , 11°C
Dew Point: 48°F , 9°C
Humidity: 88%
Barometer: 30.25 inHg , 1024.4 hPa
Clouds: Mostly cloudy
Visibility: 10 miles , 16 km
Cloud details: Partly cloudy 7500 ft
Mostly cloudy 12000 ft
2018/10/19 09:53 KJLN 190953Z AUTO 18004KT 10SM SCT075 BKN120 11/09 A3025 RMK AO2 RAE04 SLP240 P0000 T01060089
KHFJ - Monett, Missouri
Updated: Fri, Oct-Fri-2018 5:35am
Mostly cloudy
Mostly cloudy
 Wind from calm
Wind: Calm
Temperature: 50°F , 10°C
Dew Point: 45°F , 7°C
Humidity: 82%
Barometer: 30.24 inHg , 1024 hPa
Clouds: Mostly cloudy
Visibility: 10 miles , 16 km
Cloud details: Mostly cloudy 4000 ft
2018/10/19 10:35 KHFJ 191035Z AUTO 00000KT 10SM BKN040 10/07 A3024 RMK AO2
 
KSGF - Springfield, Missouri
Updated: Fri, Oct-Fri-2018 4:52am
Few Clouds
Few Clouds
 Wind from S
Wind: S 8 mph , 13 km/h
Temperature: 52°F , 11°C
Dew Point: 39°F , 4°C
Humidity: 62%
Barometer: 30.24 inHg , 1024 hPa
Clouds: Few Clouds
Visibility: 10 miles , 16 km
Cloud details: Few Clouds 7000 ft
Few Clouds 10000 ft
2018/10/19 09:52 KSGF 190952Z 17007KT 10SM FEW070 FEW100 11/04 A3024 RMK AO2 RAB10E24 SLP235 P0000 T01060039
KBBG - Branson, Missouri
Updated: Fri, Oct-Fri-2018 5:35am
Clear
Clear
 Wind from SE
Wind: SE 5 mph , 7 km/h
Temperature: 48°F , 9°C
Wind Chill: 46°F , 8°C
Dew Point: 41°F , 5°C
Humidity: 76%
Barometer: 30.25 inHg , 1024.4 hPa
Clouds: Clear
Visibility: 10 miles , 16 km
2018/10/19 10:35 KBBG 191035Z AUTO 14004KT 10SM CLR 09/05 A3025 RMK AO2
KUNO - West Plains, Missouri
Updated: Fri, Oct-Fri-2018 4:53am
Partly cloudy
Partly cloudy
 Wind from calm
Wind: Calm
Temperature: 43°F , 6°C
Dew Point: 37°F , 3°C
Humidity: 81%
Barometer: 30.27 inHg , 1025.1 hPa
Clouds: Partly cloudy
Visibility: 10 miles , 16 km
Cloud details: Partly cloudy 6500 ft
2018/10/19 09:53 KUNO 190953Z AUTO 00000KT 10SM SCT065 06/03 A3027 RMK AO2 SLP250 T00610033 $
 
KFAM - Farmington, Missouri
Updated: Fri, Oct-Fri-2018 4:56am
Clear
Clear
 Wind from SW
Wind: SW 5 mph , 7 km/h
Temperature: 39°F , 4°C
Wind Chill: 35°F , 2°C
Dew Point: 39°F , 4°C
Humidity: 100%
Barometer: 30.29 inHg , 1025.7 hPa
Clouds: Clear
Visibility: 10 miles , 16 km
2018/10/19 09:56 KFAM 190956Z AUTO 22004KT 10SM CLR 04/04 A3029 RMK AO2 SLP259 T00440039
KCGI - Cape Girardeau, Missouri
Updated: Fri, Oct-Fri-2018 4:53am
Clear
Clear
 Wind from E
Wind: E 5 mph , 7 km/h
Temperature: 39°F , 4°C
Wind Chill: 35°F , 2°C
Dew Point: 37°F , 3°C
Humidity: 93%
Barometer: 30.27 inHg , 1025.1 hPa
Clouds: Clear
Visibility: 10 miles , 16 km
2018/10/19 09:53 KCGI 190953Z AUTO 08004KT 10SM CLR 04/03 A3027 RMK AO2 SLP252 T00390028
KSTL - St. Louis, Missouri
Updated: Fri, Oct-Fri-2018 4:51am
Overcast
Overcast
 Wind from S
Wind: S 5 mph , 7 km/h
Temperature: 48°F , 9°C
Wind Chill: 46°F , 8°C
Dew Point: 37°F , 3°C
Humidity: 66%
Barometer: 30.26 inHg , 1024.7 hPa
Clouds: Overcast
Visibility: 10 miles , 16 km
Cloud details: Mostly cloudy 15000 ft
Overcast 20000 ft
2018/10/19 09:51 KSTL 190951Z 19004KT 10SM BKN150 OVC200 09/03 A3026 RMK AO2 SLP245 T00890028
 
KPOF - Popular Bluff, Missouri
Updated: Fri, Oct-Fri-2018 4:53am
Clear
Clear
 Wind from calm
Wind: Calm
Temperature: 39°F , 4°C
Dew Point: 39°F , 4°C
Humidity: 100%
Barometer: 30.28 inHg , 1025.4 hPa
Clouds: Clear
Visibility: 10 miles , 16 km
2018/10/19 09:53 KPOF 190953Z AUTO 00000KT 10SM CLR 04/04 A3028 RMK AO2 SLP256 T00390039 $
KSET - St. Charles, Missouri
Updated: Fri, Oct-Fri-2018 4:54am
Clear
Clear
 Wind from calm
Wind: Calm
Temperature: 46°F , 8°C
Dew Point: 41°F , 5°C
Humidity: 82%
Barometer: 30.25 inHg , 1024.4 hPa
Clouds: Clear
Visibility: 10 miles , 16 km
2018/10/19 09:54 KSET 190954Z AUTO 00000KT 10SM CLR 08/05 A3025 RMK AO2 SLP243 T00780050
KGLD - Goodland, Kansas
Updated: Fri, Oct-Fri-2018 5:41am
Mist, Mostly cloudy
Mist, Mostly cloudy
 Wind from WSW
Wind: WSW 10 mph , 17 km/h
Temperature: 41°F , 5°C
Wind Chill: 35°F , 2°C
Dew Point: 41°F , 5°C
Humidity: 100%
Barometer: 30.09 inHg , 1019 hPa
Summary: Mist
Clouds: Mostly cloudy
Visibility: 2 miles , 3 km
Cloud details: Mostly cloudy 200 ft
2018/10/19 10:41 KGLD 191041Z AUTO 25009KT 2SM BR BKN002 05/05 A3009 RMK AO2 T00500050
 
KHLC - Hill City, Kansas
Updated: Fri, Oct-Fri-2018 4:53am
Partly cloudy
Partly cloudy
 Wind from SSW
Wind: SSW 7 mph , 11 km/h
Temperature: 52°F , 11°C
Dew Point: 46°F , 8°C
Humidity: 82%
Barometer: 30.10 inHg , 1019.3 hPa
Clouds: Partly cloudy
Visibility: 10 miles , 16 km
Cloud details: Partly cloudy 2500 ft
2018/10/19 09:53 KHLC 190953Z AUTO 20006KT 10SM SCT025 11/08 A3010 RMK AO2 SLP186 T01060083
KHYS - Hays Muni, Kansas
Updated: Fri, Oct-Fri-2018 4:56am
Overcast
Overcast
 Wind from SSW
Wind: SSW 13 mph , 20 km/h
Temperature: 52°F , 11°C
Dew Point: 48°F , 9°C
Humidity: 88%
Barometer: 30.13 inHg , 1020.3 hPa
Clouds: Overcast
Visibility: 10 miles , 16 km
Cloud details: Overcast 1700 ft
2018/10/19 09:56 KHYS 190956Z AUTO 21011KT 10SM OVC017 11/09 A3013 RMK AO2 SLP202 T01060089
KRSL - Russell, Kansas
Updated: Fri, Oct-Fri-2018 4:53am
Overcast
Overcast
 Wind from SW
Wind: SW 10 mph , 17 km/h
Temperature: 52°F , 11°C
Dew Point: 52°F , 11°C
Humidity: 100%
Barometer: 30.13 inHg , 1020.3 hPa
Clouds: Overcast
Visibility: 10 miles , 16 km
Cloud details: Overcast 1500 ft
2018/10/19 09:53 KRSL 190953Z AUTO 22009KT 10SM OVC015 11/11 A3013 RMK AO2 SLP199 T01060106
 
KGBD - Great Bend, Kansas
Updated: Fri, Oct-Fri-2018 4:56am
Overcast
Overcast
 Wind from SW
Wind: SW 10 mph , 17 km/h
Temperature: 52°F , 11°C
Dew Point: 48°F , 9°C
Humidity: 88%
Barometer: 30.15 inHg , 1021 hPa
Clouds: Overcast
Visibility: 10 miles , 16 km
Cloud details: Overcast 1700 ft
2018/10/19 09:56 KGBD 190956Z AUTO 22009KT 10SM OVC017 11/09 A3015 RMK AO2 SLP207 T01110094
KDDC - Dodge City, Kansas
Updated: Fri, Oct-Fri-2018 4:52am
Overcast
Overcast
 Wind from SW
Wind: SW 14 mph , 22 km/h
Temperature: 48°F , 9°C
Wind Chill: 42°F , 6°C
Dew Point: 45°F , 7°C
Humidity: 87%
Barometer: 30.15 inHg , 1021 hPa
Clouds: Overcast
Visibility: 10 miles , 16 km
Cloud details: Overcast 1100 ft
2018/10/19 09:52 KDDC 190952Z AUTO 22012KT 10SM OVC011 09/07 A3015 RMK AO2 SLP201 T00940072
KPTT - Pratt Indust, Kansas
Updated: Fri, Oct-Fri-2018 5:35am
Overcast
Overcast
 Wind from SSW
Wind: SSW 14 mph , 22 km/h
Temperature: 52°F , 11°C
Dew Point: 50°F , 10°C
Humidity: 94%
Barometer: 30.16 inHg , 1021.3 hPa
Clouds: Overcast
Visibility: 10 miles , 16 km
Cloud details: Overcast 700 ft
2018/10/19 10:35 KPTT 191035Z AUTO 21012KT 10SM OVC007 11/10 A3016 RMK AO2 T01110103
 
KSLN - Salina, Kansas
Updated: Fri, Oct-Fri-2018 4:53am
Overcast
Overcast
 Wind from SSW
Wind: SSW 13 mph , 20 km/h
Temperature: 55°F , 13°C
Dew Point: 50°F , 10°C
Humidity: 82%
Barometer: 30.16 inHg , 1021.3 hPa
Clouds: Overcast
Visibility: 10 miles , 16 km
Cloud details: Mostly cloudy 2000 ft
Overcast 5500 ft
2018/10/19 09:53 KSLN 190953Z AUTO 21011KT 10SM BKN020 OVC055 13/10 A3016 RMK AO2 SLP207 T01280100
KHUT - Hutchinson, Kansas
Updated: Fri, Oct-Fri-2018 4:52am
Overcast
Overcast
 Wind from SSW
Wind: SSW 14 mph , 22 km/h, Gust: 22 mph , 35 km/h
Temperature: 54°F , 12°C
Dew Point: 52°F , 11°C
Humidity: 94%
Barometer: 30.18 inHg , 1022 hPa
Clouds: Overcast
Visibility: 10 miles , 16 km
Cloud details: Mostly cloudy 800 ft
Overcast 1400 ft
2018/10/19 09:52 KHUT 190952Z AUTO 20012G19KT 10SM BKN008 OVC014 12/11 A3018 RMK AO2 SLP207 T01170111
KGCK - Garden City, Kansas
Updated: Fri, Oct-Fri-2018 4:54am
Clear
Clear
 Wind from S
Wind: S 10 mph , 17 km/h
Temperature: 45°F , 7°C
Wind Chill: 40°F , 4°C
Dew Point: 45°F , 7°C
Humidity: 100%
Barometer: 30.12 inHg , 1020 hPa
Clouds: Clear
Visibility: 10 miles , 16 km
2018/10/19 09:54 KGCK 190954Z AUTO 19009KT 10SM CLR 07/07 A3012 RMK AO2 SLP196 T00720067
 
KP28 - Medicine Lodge, Kansas
Updated: Fri, Oct-Fri-2018 4:56am

 Wind from S
Wind: S 7 mph , 11 km/h
Temperature: 52°F , 11°C
Dew Point: 52°F , 11°C
Humidity: 100%
Barometer: 30.19 inHg , 1022.4 hPa
2018/10/19 09:56 KP28 190956Z AUTO 19006KT 11/11 A3019 RMK AO1 SLP221 T01110111
KICT - Wichita, Kansas
Updated: Fri, Oct-Fri-2018 4:53am
Light rain, Overcast
Light rain, Overcast
 Wind from S
Wind: S 10 mph , 17 km/h
Temperature: 54°F , 12°C
Dew Point: 52°F , 11°C
Humidity: 94%
Barometer: 30.20 inHg , 1022.7 hPa
Summary: Light rain
Clouds: Overcast
Visibility: 10 miles , 16 km
Cloud details: Partly cloudy 2200 ft
Overcast 2800 ft
2018/10/19 09:53 KICT 190953Z 19009KT 10SM -RA SCT022 OVC028 12/11 A3020 RMK AO2 SLP221 P0001 T01170111 $
KRSL - Russell, Kansas
Updated: Fri, Oct-Fri-2018 4:53am
Overcast
Overcast
 Wind from SW
Wind: SW 10 mph , 17 km/h
Temperature: 52°F , 11°C
Dew Point: 52°F , 11°C
Humidity: 100%
Barometer: 30.13 inHg , 1020.3 hPa
Clouds: Overcast
Visibility: 10 miles , 16 km
Cloud details: Overcast 1500 ft
2018/10/19 09:53 KRSL 190953Z AUTO 22009KT 10SM OVC015 11/11 A3013 RMK AO2 SLP199 T01060106
 
KMHK - Manhattan, Kansas
Updated: Fri, Oct-Fri-2018 4:52am
Overcast
Overcast
 Wind from SSW
Wind: SSW 8 mph , 13 km/h
Temperature: 54°F , 12°C
Dew Point: 50°F , 10°C
Humidity: 88%
Barometer: 30.15 inHg , 1021 hPa
Clouds: Overcast
Visibility: 10 miles , 16 km
Cloud details: Partly cloudy 3500 ft
Mostly cloudy 5000 ft
Overcast 6000 ft
2018/10/19 09:52 KMHK 190952Z AUTO 21007KT 10SM SCT035 BKN050 OVC060 12/10 A3015 RMK AO2 RAE14 SLP206 P0000 T01220100
KEMP - Emporia, Kansas
Updated: Fri, Oct-Fri-2018 4:53am
Overcast
Overcast
 Wind from SSW
Wind: SSW 7 mph , 11 km/h
Temperature: 52°F , 11°C
Dew Point: 46°F , 8°C
Humidity: 82%
Barometer: 30.20 inHg , 1022.7 hPa
Clouds: Overcast
Visibility: 10 miles , 16 km
Cloud details: Few Clouds 2500 ft
Overcast 3600 ft
2018/10/19 09:53 KEMP 190953Z AUTO 21006KT 10SM FEW025 OVC036 11/08 A3020 RMK AO2 SLP227 T01110078
KTOP - Topeka, Kansas
Updated: Fri, Oct-Fri-2018 4:53am
Overcast
Overcast
 Wind from SSW
Wind: SSW 9 mph , 15 km/h
Temperature: 55°F , 13°C
Dew Point: 46°F , 8°C
Humidity: 72%
Barometer: 30.18 inHg , 1022 hPa
Clouds: Overcast
Visibility: 10 miles , 16 km
Cloud details: Overcast 4300 ft
2018/10/19 09:53 KTOP 190953Z AUTO 20008KT 10SM OVC043 13/08 A3018 RMK AO2 SLP217 T01280078
 
KCNU - Chanute, Kansas
Updated: Fri, Oct-Fri-2018 4:52am
Overcast
Overcast
 Wind from SSW
Wind: SSW 5 mph , 7 km/h
Temperature: 54°F , 12°C
Dew Point: 52°F , 11°C
Humidity: 94%
Barometer: 30.22 inHg , 1023.4 hPa
Clouds: Overcast
Visibility: 10 miles , 16 km
Cloud details: Mostly cloudy 4300 ft
Overcast 5500 ft
2018/10/19 09:52 KCNU 190952Z AUTO 20004KT 10SM BKN043 OVC055 12/11 A3022 RMK AO2 RAB25E50 SLP231 P0000 T01170111
KLWC - Lawrence, Kansas
Updated: Fri, Oct-Fri-2018 4:52am
Overcast
Overcast
 Wind from SSW
Wind: SSW 7 mph , 11 km/h
Temperature: 55°F , 13°C
Dew Point: 46°F , 8°C
Humidity: 72%
Barometer: 30.19 inHg , 1022.4 hPa
Clouds: Overcast
Visibility: 10 miles , 16 km
Cloud details: Overcast 4700 ft
2018/10/19 09:52 KLWC 190952Z AUTO 20006KT 10SM OVC047 13/08 A3019 RMK AO2 SLP220 T01280083
KPPF - Parsons, Kansas
Updated: Fri, Oct-Fri-2018 4:52am
Light rain, Mist, Overcast
Light rain, Mist, Overcast
 Wind from SSW
Wind: SSW 3 mph , 6 km/h
Temperature: 54°F , 12°C
Dew Point: 52°F , 11°C
Humidity: 94%
Barometer: 30.24 inHg , 1024 hPa
Summary: Light rain, Mist
Clouds: Overcast
Visibility: 6 miles , 10 km
Cloud details: Overcast 4100 ft
2018/10/19 09:52 KPPF 190952Z AUTO 21003KT 6SM -RA BR OVC041 12/11 A3024 RMK AO2 RAB47 SLP238 P0000 T01170111
 
KIDP - Independence, Kansas
Updated: Fri, Oct-Fri-2018 5:35am
Overcast
Overcast
 Wind from SSW
Wind: SSW 8 mph , 13 km/h
Temperature: 54°F , 12°C
Dew Point: 52°F , 11°C
Humidity: 94%
Barometer: 30.25 inHg , 1024.4 hPa
Clouds: Overcast
Visibility: 10 miles , 16 km
Cloud details: Partly cloudy 1700 ft
Overcast 3600 ft
2018/10/19 10:35 KIDP 191035Z AUTO 20007KT 10SM SCT017 OVC036 12/11 A3025 RMK AO2 T01170106
KOJC - Olathe, Kansas
Updated: Fri, Oct-Fri-2018 4:53am
Overcast
Overcast
 Wind from SSW
Wind: SSW 7 mph , 11 km/h
Temperature: 52°F , 11°C
Dew Point: 45°F , 7°C
Humidity: 77%
Barometer: 30.19 inHg , 1022.4 hPa
Clouds: Overcast
Visibility: 10 miles , 16 km
Cloud details: Mostly cloudy 4600 ft
Overcast 6000 ft
2018/10/19 09:53 KOJC 190953Z AUTO 20006KT 10SM BKN046 OVC060 11/07 A3019 RMK AO2 SLP220 T01110072
KCFV - Coffeyville, Kansas
Updated: Fri, Oct-Fri-2018 4:52am
Light rain, Overcast
Light rain, Overcast
 Wind from S
Wind: S 3 mph , 6 km/h
Temperature: 54°F , 12°C
Dew Point: 52°F , 11°C
Humidity: 94%
Barometer: 30.24 inHg , 1024 hPa
Summary: Light rain
Clouds: Overcast
Visibility: 8 miles , 13 km
Cloud details: Overcast 4200 ft
2018/10/19 09:52 KCFV 190952Z AUTO 19003KT 8SM -RA OVC042 12/11 A3024 RMK AO2 RAB34 SLP238 P0001 T01220111
 
KPTS - Pittsburg, Kansas
Updated: Fri, Oct-Fri-2018 5:35am
Light rain, Overcast
Light rain, Overcast
 Wind from SSW
Wind: SSW 3 mph , 6 km/h
Temperature: 55°F , 13°C
Dew Point: 50°F , 10°C
Humidity: 82%
Barometer: 30.23 inHg , 1023.7 hPa
Summary: Light rain
Clouds: Overcast
Visibility: 10 miles , 16 km
Cloud details: Overcast 4100 ft
2018/10/19 10:35 KPTS 191035Z AUTO 21003KT 10SM -RA OVC041 13/10 A3023 RMK AO2 T01330102
KLGA - New York City, New York
Updated: Fri, Oct-Fri-2018 4:51am
Clear
Clear
 Wind from SW
Wind: SW 7 mph , 11 km/h
Temperature: 46°F , 8°C
Wind Chill: 42°F , 6°C
Dew Point: 30°F , -1°C
Humidity: 53%
Barometer: 30.30 inHg , 1026.1 hPa
Clouds: Clear
Visibility: 10 miles , 16 km
2018/10/19 09:51 KLGA 190951Z 23006KT 10SM CLR 08/M01 A3030 RMK AO2 SLP260 T00831006
KCLT - Charlotte, North Carolina
Updated: Fri, Oct-Fri-2018 4:52am
Clear
Clear
 Wind from calm
Wind: Calm
Temperature: 45°F , 7°C
Dew Point: 43°F , 6°C
Humidity: 93%
Barometer: 30.37 inHg , 1028.4 hPa
Clouds: Clear
Visibility: 9 miles , 14 km
2018/10/19 09:52 KCLT 190952Z 00000KT 9SM CLR 07/06 A3037 RMK AO2 SLP281 T00670061
 
KATL - Atlanta, Georgia
Updated: Fri, Oct-Fri-2018 4:52am
Mostly cloudy
Mostly cloudy
 Wind from E
Wind: E 8 mph , 13 km/h
Temperature: 54°F , 12°C
Dew Point: 46°F , 8°C
Humidity: 77%
Barometer: 30.32 inHg , 1026.8 hPa
Clouds: Mostly cloudy
Visibility: 10 miles , 16 km
Cloud details: Mostly cloudy 20000 ft
Mostly cloudy 25000 ft
2018/10/19 09:52 KATL 190952Z 09007KT 10SM BKN200 BKN250 12/08 A3032 RMK AO2 SLP264 T01220078
KORL - Orlando, Florida
Updated: Fri, Oct-Fri-2018 4:53am
Few Clouds
Few Clouds
 Wind from N
Wind: N 5 mph , 7 km/h
Temperature: 77°F , 25°C
Dew Point: 75°F , 24°C
Humidity: 94%
Barometer: 30.17 inHg , 1021.7 hPa
Clouds: Few Clouds
Visibility: 10 miles , 16 km
Cloud details: Few Clouds 2200 ft
2018/10/19 09:53 KORL 190953Z AUTO 01004KT 10SM FEW022 25/24 A3017 RMK AO2 SLP217 T02500239 PNO $
KMSP - Minneapolis, Minnesota
Updated: Fri, Oct-Fri-2018 4:53am
Light rain, Overcast
Light rain, Overcast
 Wind from SSW
Wind: SSW 14 mph , 22 km/h, Gust: 33 mph , 54 km/h
Temperature: 55°F , 13°C
Dew Point: 48°F , 9°C
Humidity: 77%
Barometer: 29.88 inHg , 1011.9 hPa
Summary: Light rain
Clouds: Overcast
Visibility: 6 miles , 10 km
Cloud details: Few Clouds 7000 ft
Overcast 9000 ft
2018/10/19 09:53 KMSP 190953Z 21012G29KT 6SM -RA FEW070 OVC090 13/09 A2988 RMK AO2 PK WND 21029/0946 RAE09B33 SLP116 P0001 T01280089
 
KORD - Chicago, Illinois
Updated: Fri, Oct-Fri-2018 4:51am
Overcast
Overcast
 Wind from SW
Wind: SW 10 mph , 17 km/h
Temperature: 46°F , 8°C
Wind Chill: 41°F , 5°C
Dew Point: 30°F , -1°C
Humidity: 53%
Barometer: 30.18 inHg , 1022 hPa
Clouds: Overcast
Visibility: 10 miles , 16 km
Cloud details: Overcast 24000 ft
2018/10/19 09:51 KORD 190951Z 22009KT 10SM OVC240 08/M01 A3018 RMK AO2 SLP223 T00831011
KDFW - Dallas/Ft Worth, Texas
Updated: Fri, Oct-Fri-2018 4:53am
Overcast
Overcast
 Wind from N
Wind: N 5 mph , 7 km/h
Temperature: 57°F , 14°C
Dew Point: 54°F , 12°C
Humidity: 88%
Barometer: 30.20 inHg , 1022.7 hPa
Clouds: Overcast
Visibility: 10 miles , 16 km
Cloud details: Few Clouds 900 ft
Overcast 2200 ft
2018/10/19 09:53 KDFW 190953Z 36004KT 10SM FEW009 OVC022 14/12 A3020 RMK AO2 RAB00E40 SLP222 P0011 T01390122
KHOU - Houston, Texas
Updated: Fri, Oct-Fri-2018 4:53am
Overcast
Overcast
 Wind from NE
Wind: NE 7 mph , 11 km/h
Temperature: 66°F , 19°C
Dew Point: 59°F , 15°C
Humidity: 78%
Barometer: 30.13 inHg , 1020.3 hPa
Clouds: Overcast
Visibility: 10 miles , 16 km
Cloud details: Few Clouds 2800 ft
Partly cloudy 4500 ft
Overcast 17000 ft
2018/10/19 09:53 KHOU 190953Z 05006KT 10SM FEW028 SCT045 OVC170 19/15 A3013 RMK AO2 SLP207 T01890150
 
KDEN - Denver, Colorado
Updated: Fri, Oct-Fri-2018 4:53am
Partly cloudy
Partly cloudy
 Wind from W
Wind: W 8 mph , 13 km/h
Temperature: 48°F , 9°C
Wind Chill: 44°F , 7°C
Dew Point: 36°F , 2°C
Humidity: 62%
Barometer: 30.19 inHg , 1022.4 hPa
Clouds: Partly cloudy
Visibility: 10 miles , 16 km
Cloud details: Partly cloudy 12000 ft
2018/10/19 09:53 KDEN 190953Z 27007KT 10SM SCT120 09/02 A3019 RMK AO2 SLP172 T00940017
KSFO - San Francisco, California
Updated: Fri, Oct-Fri-2018 4:56am
Few Clouds
Few Clouds
 Wind from W
Wind: W 6 mph , 9 km/h
Temperature: 54°F , 12°C
Dew Point: 48°F , 9°C
Humidity: 82%
Barometer: 30.10 inHg , 1019.3 hPa
Clouds: Few Clouds
Visibility: 10 miles , 16 km
Cloud details: Few Clouds 600 ft
2018/10/19 09:56 KSFO 190956Z 26005KT 10SM FEW006 12/09 A3010 RMK AO2 SLP192 T01170094
KLAX - Los Angeles, California
Updated: Fri, Oct-Fri-2018 4:53am
Clear
Clear
 Wind from calm
Wind: Calm
Temperature: 66°F , 19°C
Dew Point: 45°F , 7°C
Humidity: 46%
Barometer: 29.99 inHg , 1015.6 hPa
Clouds: Clear
Visibility: 10 miles , 16 km
2018/10/19 09:53 KLAX 190953Z 00000KT 10SM CLR 19/07 A2999 RMK AO2 SLP154 T01890067 $